createdAt,value
2019-05-10T00:00:43.928Z,100309.67
2019-05-10T00:03:31.845Z,100305.95
2019-05-10T00:06:19.455Z,100307.28
2019-05-10T00:08:48.402Z,100304.03
2019-05-10T00:11:37.831Z,100304.69
2019-05-10T00:17:16.839Z,100307.08
2019-05-10T00:19:46.567Z,100305.06
2019-05-10T00:22:16.347Z,100303.70
2019-05-10T00:25:02.067Z,100302.42
2019-05-10T00:27:18.226Z,100300.23
2019-05-10T00:29:47.934Z,100296.61
2019-05-10T00:32:17.704Z,100297.97
2019-05-10T00:34:47.342Z,100300.98
2019-05-10T00:37:17.021Z,100301.34
2019-05-10T00:39:46.675Z,100296.81
2019-05-10T00:42:16.364Z,100298.09
2019-05-10T00:44:46.333Z,100294.71
2019-05-10T00:47:16.015Z,100292.16
2019-05-10T00:49:45.731Z,100290.43
2019-05-10T00:52:15.542Z,100292.98
2019-05-10T00:54:45.250Z,100282.86
2019-05-10T00:57:14.912Z,100281.59
2019-05-10T00:59:44.569Z,100279.48
2019-05-10T01:02:14.726Z,100274.50
2019-05-10T01:04:44.653Z,100274.33
2019-05-10T01:07:14.280Z,100278.50
2019-05-10T01:09:44.130Z,100276.43
2019-05-10T01:12:14.548Z,100280.25
2019-05-10T01:14:44.554Z,100276.88
2019-05-10T01:17:14.080Z,100276.88
2019-05-10T01:19:43.770Z,100276.15
2019-05-10T01:22:13.413Z,100277.98
2019-05-10T01:24:43.368Z,100281.00
2019-05-10T01:27:13.029Z,100284.83
2019-05-10T01:29:43.327Z,100279.80
2019-05-10T01:32:13.008Z,100281.28
2019-05-10T01:34:42.642Z,100280.45
2019-05-10T01:37:12.296Z,100277.11
2019-05-10T01:39:43.953Z,100278.39
2019-05-10T01:42:13.594Z,100281.39
2019-05-10T01:44:43.989Z,100278.47
2019-05-10T01:47:13.680Z,100283.33
2019-05-10T01:49:43.323Z,100285.88
2019-05-10T01:52:13.018Z,100279.05
2019-05-10T01:54:43.402Z,100274.28
2019-05-10T01:57:13.036Z,100279.67
2019-05-10T01:59:42.922Z,100283.12
2019-05-10T02:02:13.381Z,100288.59
2019-05-10T02:04:43.031Z,100286.05
2019-05-10T02:07:13.196Z,100288.23
2019-05-10T02:09:43.848Z,100283.12
2019-05-10T02:12:13.496Z,100289.95
2019-05-10T02:14:43.794Z,100288.80
2019-05-10T02:17:13.467Z,100293.41
2019-05-10T02:19:43.282Z,100289.25
2019-05-10T02:22:13.090Z,100298.27
2019-05-10T02:24:43.349Z,100299.91
2019-05-10T02:27:12.986Z,100295.17
2019-05-10T02:29:42.920Z,100305.72
2019-05-10T02:32:12.645Z,100302.26
2019-05-10T02:34:42.824Z,100303.08
2019-05-10T02:37:13.366Z,100303.42
2019-05-10T02:39:43.026Z,100303.08
2019-05-10T02:42:12.667Z,100303.42
2019-05-10T02:44:42.318Z,100303.42
2019-05-10T02:47:12.023Z,100305.06
2019-05-10T02:49:42.230Z,100299.51
2019-05-10T02:52:11.884Z,100299.59
2019-05-10T02:58:05.512Z,100301.35
2019-05-10T03:00:37.232Z,100302.97
2019-05-10T03:03:08.429Z,100304.36
2019-05-10T03:05:39.597Z,100311.27
2019-05-10T03:08:11.414Z,100314.30
2019-05-10T03:10:44.111Z,100316.48
2019-05-10T03:13:18.622Z,100313.20
2019-05-10T03:15:51.341Z,100313.39
2019-05-10T03:18:23.320Z,100308.86
2019-05-10T03:20:56.826Z,100309.77
2019-05-10T03:23:26.999Z,100308.86
2019-05-10T03:25:57.208Z,100312.69
2019-05-10T03:28:26.826Z,100313.51
2019-05-10T03:30:56.578Z,100322.06
2019-05-10T03:33:26.530Z,100319.97
2019-05-10T03:35:56.166Z,100320.08
2019-05-10T03:38:25.801Z,100314.69
2019-05-10T03:40:55.815Z,100315.26
2019-05-10T03:43:25.468Z,100310.23
2019-05-10T03:45:55.103Z,100320.55
2019-05-10T03:48:24.903Z,100319.92
2019-05-10T03:50:55.300Z,100320.94
2019-05-10T03:53:24.943Z,100323.12
2019-05-10T03:55:54.625Z,100323.12
2019-05-10T03:58:24.255Z,100320.66
2019-05-10T04:00:53.908Z,100318.92
2019-05-10T04:03:23.583Z,100321.92
2019-05-10T04:05:53.222Z,100323.77
2019-05-10T04:08:22.883Z,100314.09
2019-05-10T04:10:53.325Z,100326.51
2019-05-10T04:13:23.147Z,100327.33
2019-05-10T04:15:54.451Z,100334.79
2019-05-10T04:18:24.122Z,100339.89
2019-05-10T04:20:53.749Z,100343.60
2019-05-10T04:23:23.383Z,100341.68
2019-05-10T04:25:53.166Z,100344.03
2019-05-10T04:28:22.807Z,100339.68
2019-05-10T04:30:52.451Z,100348.04
2019-05-10T04:33:22.151Z,100351.41
2019-05-10T04:35:51.801Z,100356.44
2019-05-10T04:38:21.441Z,100360.34
2019-05-10T04:40:51.117Z,100359.52
2019-05-10T04:43:20.773Z,100360.16
2019-05-10T04:45:50.397Z,100356.79
2019-05-10T04:48:20.075Z,100357.61
2019-05-10T04:50:50.991Z,100359.15
2019-05-10T04:53:20.692Z,100359.71
2019-05-10T04:55:50.371Z,100353.80
2019-05-10T04:58:20.003Z,100360.62
2019-05-10T05:00:49.813Z,100354.43
2019-05-10T05:03:19.494Z,100364.19
2019-05-10T05:05:49.803Z,100359.56
2019-05-10T05:08:19.503Z,100363.23
2019-05-10T05:10:49.266Z,100360.75
2019-05-10T05:13:18.942Z,100354.02
2019-05-10T05:15:48.589Z,100357.65
2019-05-10T05:18:18.288Z,100359.10
2019-05-10T05:20:48.090Z,100366.85
2019-05-10T05:26:41.222Z,100360.00
2019-05-10T05:29:12.390Z,100369.92
2019-05-10T05:31:42.108Z,100369.28
2019-05-10T05:34:12.275Z,100376.11
2019-05-10T05:36:42.176Z,100373.84
2019-05-10T05:39:12.207Z,100376.86
2019-05-10T05:41:49.445Z,100373.95
2019-05-10T05:44:13.346Z,100376.77
2019-05-10T05:46:42.976Z,100376.75
2019-05-10T05:49:12.672Z,100384.57
2019-05-10T05:51:42.367Z,100382.73
2019-05-10T05:54:15.241Z,100390.75
2019-05-10T05:56:44.548Z,100392.47
2019-05-10T05:59:17.605Z,100389.66
2019-05-10T06:01:46.124Z,100391.77
2019-05-10T06:04:15.842Z,100392.22
2019-05-10T06:06:46.029Z,100389.67
2019-05-10T06:09:15.730Z,100390.67
2019-05-10T06:11:45.458Z,100389.85
2019-05-10T06:14:15.106Z,100390.22
2019-05-10T06:16:50.876Z,100389.67
2019-05-10T06:19:19.945Z,100392.48
2019-05-10T06:21:48.106Z,100393.21
2019-05-10T06:24:18.112Z,100395.12
2019-05-10T06:26:48.205Z,100398.10
2019-05-10T06:29:19.899Z,100396.72
2019-05-10T06:31:49.360Z,100395.61
2019-05-10T06:34:19.038Z,100396.98
2019-05-10T06:36:48.684Z,100396.87
2019-05-10T06:39:18.397Z,100398.70
2019-05-10T06:41:50.123Z,100404.14
2019-05-10T06:44:19.575Z,100401.98
2019-05-10T06:46:49.220Z,100403.19
2019-05-10T06:49:19.144Z,100403.70
2019-05-10T06:51:50.867Z,100402.87
2019-05-10T06:54:20.957Z,100397.13
2019-05-10T06:56:50.895Z,100398.89
2019-05-10T06:59:24.928Z,100400.31
2019-05-10T07:01:52.462Z,100396.91
2019-05-10T07:04:22.251Z,100401.11
2019-05-10T07:06:51.973Z,100404.21
2019-05-10T07:09:24.098Z,100408.04
2019-05-10T07:11:53.810Z,100404.27
2019-05-10T07:14:27.097Z,100406.39
2019-05-10T07:17:02.043Z,100411.75
2019-05-10T07:19:29.293Z,100414.02
2019-05-10T07:21:58.934Z,100418.38
2019-05-10T07:24:28.564Z,100417.45
2019-05-10T07:27:02.353Z,100422.47
2019-05-10T07:29:30.590Z,100425.97
2019-05-10T07:32:01.003Z,100423.73
2019-05-10T07:34:30.748Z,100422.70
2019-05-10T07:37:01.961Z,100416.73
2019-05-10T07:39:31.806Z,100420.08
2019-05-10T07:42:06.486Z,100417.37
2019-05-10T07:44:32.926Z,100419.96
2019-05-10T07:47:02.567Z,100423.27
2019-05-10T07:49:32.551Z,100423.70
2019-05-10T07:52:04.275Z,100430.95
2019-05-10T07:54:37.355Z,100421.23
2019-05-10T07:57:05.250Z,100415.11
2019-05-10T07:59:49.520Z,100424.62
2019-05-10T08:02:12.808Z,100423.18
2019-05-10T08:04:38.473Z,100432.74
2019-05-10T08:07:10.443Z,100430.59
2019-05-10T08:09:44.822Z,100430.55
2019-05-10T08:12:13.034Z,100433.63
2019-05-10T08:14:47.562Z,100439.66
2019-05-10T08:17:13.753Z,100437.80
2019-05-10T08:19:43.642Z,100434.37
2019-05-10T08:22:14.891Z,100434.22
2019-05-10T08:24:52.210Z,100437.43
2019-05-10T08:27:15.960Z,100438.13
2019-05-10T08:29:45.607Z,100436.22
2019-05-10T08:32:19.273Z,100440.81
2019-05-10T08:34:52.072Z,100442.70
2019-05-10T08:37:30.451Z,100439.63
2019-05-10T08:39:55.339Z,100442.55
2019-05-10T08:42:38.000Z,100437.45
2019-05-10T08:45:03.828Z,100444.03
2019-05-10T08:47:27.781Z,100435.48
2019-05-10T08:50:10.376Z,100438.66
2019-05-10T08:52:31.730Z,100443.19
2019-05-10T08:54:59.511Z,100450.56
2019-05-10T08:57:29.239Z,100450.00
2019-05-10T09:00:06.557Z,100449.73
2019-05-10T09:02:32.784Z,100448.39
2019-05-10T09:05:02.715Z,100456.95
2019-05-10T09:07:36.850Z,100462.55
2019-05-10T09:10:09.302Z,100458.02
2019-05-10T09:12:50.301Z,100458.85
2019-05-10T09:15:13.495Z,100453.08
2019-05-10T09:17:43.467Z,100453.80
2019-05-10T09:20:20.625Z,100449.50
2019-05-10T09:22:44.891Z,100448.81
2019-05-10T09:25:15.159Z,100447.44
2019-05-10T09:27:44.856Z,100443.14
2019-05-10T09:30:18.530Z,100450.04
2019-05-10T09:32:48.937Z,100455.95
2019-05-10T09:35:18.998Z,100457.37
2019-05-10T09:37:53.958Z,100459.50
2019-05-10T09:40:22.020Z,100465.45
2019-05-10T09:42:52.258Z,100461.38
2019-05-10T09:45:24.357Z,100461.24
2019-05-10T09:47:53.604Z,100465.91
2019-05-10T09:50:23.415Z,100466.70
2019-05-10T09:52:53.100Z,100470.69
2019-05-10T09:55:22.710Z,100468.25
2019-05-10T09:57:52.415Z,100468.61
2019-05-10T10:00:33.294Z,100471.06
2019-05-10T10:03:03.311Z,100473.27
2019-05-10T10:05:32.949Z,100475.73
2019-05-10T10:08:03.776Z,100476.43
2019-05-10T10:10:33.942Z,100471.17
2019-05-10T10:13:10.886Z,100473.05
2019-05-10T10:15:37.026Z,100478.50
2019-05-10T10:18:06.684Z,100478.87
2019-05-10T10:20:43.564Z,100474.33
2019-05-10T10:23:07.744Z,100474.22
2019-05-10T10:25:40.651Z,100479.84
2019-05-10T10:28:17.242Z,100481.00
2019-05-10T10:30:40.267Z,100476.21
2019-05-10T10:33:13.655Z,100473.66
2019-05-10T10:35:41.347Z,100472.14
2019-05-10T10:38:10.989Z,100475.06
2019-05-10T10:40:44.742Z,100472.96
2019-05-10T10:43:12.264Z,100467.63
2019-05-10T10:45:41.955Z,100473.92
2019-05-10T10:48:13.054Z,100473.09
2019-05-10T10:50:44.488Z,100474.02
2019-05-10T10:53:14.295Z,100477.73
2019-05-10T10:55:46.081Z,100480.04
2019-05-10T10:58:18.213Z,100482.94
2019-05-10T11:00:48.119Z,100484.34
2019-05-10T11:03:18.085Z,100487.56
2019-05-10T11:05:48.553Z,100485.49
2019-05-10T11:08:18.227Z,100491.34
2019-05-10T11:10:50.530Z,100490.27
2019-05-10T11:13:39.832Z,100486.31
2019-05-10T11:15:51.727Z,100490.63
2019-05-10T11:18:21.834Z,100492.27
2019-05-10T11:20:53.883Z,100497.70
2019-05-10T11:23:26.824Z,100494.53
2019-05-10T11:25:56.624Z,100493.20
2019-05-10T11:28:32.486Z,100491.98
2019-05-10T11:30:58.059Z,100492.30
2019-05-10T11:33:32.883Z,100489.58
2019-05-10T11:36:03.913Z,100490.66
2019-05-10T11:38:31.739Z,100494.10
2019-05-10T11:41:02.167Z,100496.36
2019-05-10T11:43:33.101Z,100496.05
2019-05-10T11:46:02.807Z,100499.10
2019-05-10T11:48:37.240Z,100499.14
2019-05-10T11:51:05.612Z,100499.05
2019-05-10T11:53:35.706Z,100501.15
2019-05-10T11:56:07.829Z,100502.33
2019-05-10T11:58:37.465Z,100501.30
2019-05-10T12:01:14.831Z,100506.84
2019-05-10T12:03:42.519Z,100511.89
2019-05-10T12:06:12.541Z,100513.31
2019-05-10T12:08:42.261Z,100508.75
2019-05-10T12:11:27.829Z,100514.71
2019-05-10T12:13:43.519Z,100516.60
2019-05-10T12:16:16.830Z,100520.10
2019-05-10T12:19:00.845Z,100525.81
2019-05-10T12:21:16.628Z,100520.64
2019-05-10T12:23:50.969Z,100526.17
2019-05-10T12:28:51.083Z,100535.36
2019-05-10T12:31:23.424Z,100534.69
2019-05-10T12:33:54.452Z,100532.39
2019-05-10T12:36:27.544Z,100545.19
2019-05-10T12:38:56.280Z,100538.42
2019-05-10T12:41:26.913Z,100539.95
2019-05-10T12:44:04.146Z,100540.15
2019-05-10T12:46:30.707Z,100547.33
2019-05-10T12:49:02.081Z,100548.85
2019-05-10T12:51:31.886Z,100555.13
2019-05-10T12:54:01.533Z,100552.16
2019-05-10T12:56:35.067Z,100553.92
2019-05-10T12:59:03.271Z,100562.22
2019-05-10T13:01:33.298Z,100559.22
2019-05-10T13:04:13.939Z,100559.42
2019-05-10T13:06:34.982Z,100570.69
2019-05-10T13:09:06.902Z,100563.11
2019-05-10T13:11:37.413Z,100565.03
2019-05-10T13:14:09.834Z,100566.10
2019-05-10T13:16:39.425Z,100566.45
2019-05-10T13:19:14.219Z,100570.55
2019-05-10T13:21:40.502Z,100568.00
2019-05-10T13:24:10.132Z,100571.21
2019-05-10T13:26:39.948Z,100575.03
2019-05-10T13:29:10.506Z,100575.28
2019-05-10T13:31:43.031Z,100584.33
2019-05-10T13:34:12.233Z,100584.04
2019-05-10T13:36:45.447Z,100579.53
2019-05-10T13:39:19.061Z,100579.45
2019-05-10T13:41:48.170Z,100584.28
2019-05-10T13:44:18.066Z,100586.55
2019-05-10T13:46:47.838Z,100581.40
2019-05-10T13:49:17.551Z,100588.28
2019-05-10T13:51:47.190Z,100583.80
2019-05-10T13:54:16.827Z,100590.12
2019-05-10T13:56:52.429Z,100581.52
2019-05-10T13:59:18.199Z,100592.47
2019-05-10T14:01:49.637Z,100590.28
2019-05-10T14:04:22.891Z,100592.31
2019-05-10T14:06:50.713Z,100589.59
2019-05-10T14:09:21.057Z,100587.09
2019-05-10T14:11:50.877Z,100585.87
2019-05-10T14:14:31.479Z,100591.91
2019-05-10T14:17:01.331Z,100592.72
2019-05-10T14:19:30.984Z,100593.39
2019-05-10T14:22:00.723Z,100596.13
2019-05-10T14:24:30.486Z,100601.80
2019-05-10T14:27:00.134Z,100606.03
2019-05-10T14:29:34.785Z,100603.91
2019-05-10T14:32:01.666Z,100606.73
2019-05-10T14:34:37.880Z,100609.20
2019-05-10T14:37:04.349Z,100611.22
2019-05-10T14:42:57.176Z,100622.17
2019-05-10T14:45:26.812Z,100623.63
2019-05-10T14:47:56.759Z,100620.91
2019-05-10T14:50:28.400Z,100624.16
2019-05-10T14:52:57.928Z,100629.44
2019-05-10T14:55:33.992Z,100631.89
2019-05-10T14:57:58.992Z,100631.31
2019-05-10T15:00:28.631Z,100634.03
2019-05-10T15:03:01.994Z,100636.48
2019-05-10T15:05:30.075Z,100635.67
2019-05-10T15:07:59.721Z,100631.79
2019-05-10T15:10:33.154Z,100642.02
2019-05-10T15:13:00.863Z,100635.91
2019-05-10T15:15:31.243Z,100633.66
2019-05-10T15:18:03.479Z,100633.61
2019-05-10T15:20:35.893Z,100635.73
2019-05-10T15:23:04.960Z,100637.50
2019-05-10T15:25:34.595Z,100639.11
2019-05-10T15:28:04.558Z,100644.28
2019-05-10T15:30:39.122Z,100643.75
2019-05-10T15:33:06.191Z,100641.45
2019-05-10T15:35:36.114Z,100640.37
2019-05-10T15:38:07.612Z,100641.17
2019-05-10T15:40:38.704Z,100637.82
2019-05-10T15:43:10.524Z,100643.38
2019-05-10T15:45:40.475Z,100645.15
2019-05-10T15:48:10.362Z,100645.91
2019-05-10T15:50:41.166Z,100641.16
2019-05-10T15:53:12.036Z,100641.38
2019-05-10T15:55:41.749Z,100649.03
2019-05-10T15:58:11.773Z,100647.86
2019-05-10T16:00:41.765Z,100653.32
2019-05-10T16:03:12.248Z,100651.31
2019-05-10T16:05:43.936Z,100655.62
2019-05-10T16:08:13.844Z,100648.19
2019-05-10T16:10:43.776Z,100651.66
2019-05-10T16:13:20.034Z,100653.98
2019-05-10T16:15:44.943Z,100655.64
2019-05-10T16:18:15.873Z,100664.96
2019-05-10T16:20:45.569Z,100663.30
2019-05-10T16:23:15.301Z,100668.13
2019-05-10T16:25:48.149Z,100670.77
2019-05-10T16:28:20.765Z,100673.77
2019-05-10T16:30:47.890Z,100671.39
2019-05-10T16:33:18.841Z,100677.69
2019-05-10T16:35:51.911Z,100680.92
2019-05-10T16:38:20.040Z,100687.70
2019-05-10T16:40:58.369Z,100689.95
2019-05-10T16:43:24.834Z,100691.41
2019-05-10T16:45:54.285Z,100691.78
2019-05-10T16:48:27.906Z,100690.29
2019-05-10T16:50:55.510Z,100701.96
2019-05-10T16:53:25.202Z,100702.27
2019-05-10T16:55:55.023Z,100696.09
2019-05-10T16:58:29.800Z,100697.06
2019-05-10T17:01:02.369Z,100703.89
2019-05-10T17:03:32.004Z,100697.38
2019-05-10T17:06:04.095Z,100696.70
2019-05-10T17:08:36.712Z,100694.98
2019-05-10T17:11:10.207Z,100696.98
2019-05-10T17:13:41.647Z,100701.79
2019-05-10T17:16:11.554Z,100703.45
2019-05-10T17:18:42.493Z,100708.39
2019-05-10T17:21:13.189Z,100705.81
2019-05-10T17:23:46.968Z,100712.26
2019-05-10T17:26:14.570Z,100716.31
2019-05-10T17:28:45.121Z,100716.34
2019-05-10T17:31:14.796Z,100719.81
2019-05-10T17:33:50.115Z,100718.53
2019-05-10T17:36:21.442Z,100718.87
2019-05-10T17:38:53.347Z,100720.39
2019-05-10T17:41:24.896Z,100718.75
2019-05-10T17:43:54.044Z,100719.45
2019-05-10T17:46:23.942Z,100723.77
2019-05-10T17:48:53.817Z,100728.66
2019-05-10T17:51:23.615Z,100720.09
2019-05-10T17:54:38.830Z,100719.36
2019-05-10T17:57:05.243Z,100727.61
2019-05-10T17:59:34.974Z,100737.38
2019-05-10T18:02:04.697Z,100731.19
2019-05-10T18:04:34.399Z,100731.15
2019-05-10T18:07:04.353Z,100729.03
2019-05-10T18:09:34.008Z,100728.19
2019-05-10T18:12:04.053Z,100734.93
2019-05-10T18:14:33.925Z,100734.78
2019-05-10T18:17:07.207Z,100736.14
2019-05-10T18:19:36.633Z,100734.38
2019-05-10T18:22:07.437Z,100743.22
2019-05-10T18:24:41.444Z,100747.29
2019-05-10T18:27:08.642Z,100760.33
2019-05-10T18:29:39.900Z,100759.27
2019-05-10T18:32:11.215Z,100755.14
2019-05-10T18:34:41.546Z,100753.02
2019-05-10T18:37:15.824Z,100765.36
2019-05-10T18:39:47.210Z,100766.12
2019-05-10T18:42:18.749Z,100768.90
2019-05-10T18:45:07.420Z,100774.48
2019-05-10T18:47:28.521Z,100781.35
2019-05-10T18:49:58.135Z,100789.50
2019-05-10T18:52:28.055Z,100791.73
2019-05-10T18:55:00.383Z,100801.41
2019-05-10T18:57:30.111Z,100819.53
2019-05-10T18:59:59.751Z,100818.99
2019-05-10T19:02:33.533Z,100797.05
2019-05-10T19:05:02.475Z,100796.19
2019-05-10T19:07:32.091Z,100811.56
2019-05-10T19:10:03.009Z,100825.31
2019-05-10T19:12:34.560Z,100816.35
2019-05-10T19:15:16.954Z,100816.39
2019-05-10T19:17:46.258Z,100827.05
2019-05-10T19:20:18.550Z,100828.16
2019-05-10T19:22:48.404Z,100822.86
2019-05-10T19:25:18.211Z,100819.84
2019-05-10T19:27:50.999Z,100823.36
2019-05-10T19:30:22.468Z,100827.94
2019-05-10T19:32:56.450Z,100839.72
2019-05-10T19:35:23.685Z,100860.69
2019-05-10T19:37:54.136Z,100851.06
2019-05-10T19:40:24.665Z,100845.11
2019-05-10T19:42:54.380Z,100832.75
2019-05-10T19:45:24.332Z,100837.55
2019-05-10T19:47:55.519Z,100849.98
2019-05-10T19:50:30.775Z,100840.44
2019-05-10T19:53:03.916Z,100842.34
2019-05-10T19:55:30.575Z,100842.71
2019-05-10T19:58:00.227Z,100839.41
2019-05-10T20:00:29.980Z,100843.71
2019-05-10T20:02:59.890Z,100833.17
2019-05-10T20:05:29.671Z,100832.63
2019-05-10T20:07:59.333Z,100832.63
2019-05-10T20:10:29.002Z,100826.14
2019-05-10T20:12:58.671Z,100828.87
2019-05-10T20:15:30.059Z,100831.69
2019-05-10T20:18:00.130Z,100825.06
2019-05-10T20:20:29.755Z,100826.34
2019-05-10T20:23:01.059Z,100825.89
2019-05-10T20:25:31.255Z,100824.86
2019-05-10T20:28:00.889Z,100825.06
2019-05-10T20:30:31.933Z,100825.36
2019-05-10T20:33:01.609Z,100826.39
2019-05-10T20:35:31.271Z,100821.36
2019-05-10T20:38:02.577Z,100813.79
2019-05-10T20:40:52.475Z,100819.66
2019-05-10T20:43:24.676Z,100811.06
2019-05-10T20:45:54.348Z,100807.17
2019-05-10T20:48:23.979Z,100801.55
2019-05-10T20:50:56.425Z,100806.66
2019-05-10T20:53:28.491Z,100805.27
2019-05-10T20:55:58.149Z,100804.27
2019-05-10T20:58:27.883Z,100804.07
2019-05-10T21:00:57.621Z,100808.53
2019-05-10T21:03:27.282Z,100805.85
2019-05-10T21:05:57.531Z,100803.66
2019-05-10T21:08:27.219Z,100810.44
2019-05-10T21:10:56.861Z,100809.23
2019-05-10T21:13:26.627Z,100806.63
2019-05-10T21:15:59.252Z,100814.44
2019-05-10T21:18:28.913Z,100813.41
2019-05-10T21:20:58.616Z,100817.73
2019-05-10T21:23:28.298Z,100816.34
2019-05-10T21:25:59.347Z,100810.78
2019-05-10T21:28:29.018Z,100812.26
2019-05-10T21:30:58.789Z,100807.70
2019-05-10T21:33:29.385Z,100802.21
2019-05-10T21:35:59.346Z,100798.20
2019-05-10T21:38:32.877Z,100803.84
2019-05-10T21:41:00.348Z,100800.55
2019-05-10T21:43:30.931Z,100796.06
2019-05-10T21:46:00.663Z,100801.23
2019-05-10T21:48:30.542Z,100799.76
2019-05-10T21:51:00.266Z,100805.14
2019-05-10T21:53:30.127Z,100802.49
2019-05-10T21:55:59.922Z,100800.84
2019-05-10T21:58:30.829Z,100804.68
2019-05-10T22:01:01.919Z,100808.27
2019-05-10T22:03:31.607Z,100808.72
2019-05-10T22:06:03.218Z,100801.31
2019-05-10T22:08:47.178Z,100802.91
2019-05-10T22:11:05.392Z,100807.73
2019-05-10T22:13:36.741Z,100810.69
2019-05-10T22:16:06.488Z,100822.59
2019-05-10T22:18:40.545Z,100823.97
2019-05-10T22:21:10.372Z,100823.99
2019-05-10T22:23:41.175Z,100820.44
2019-05-10T22:26:12.779Z,100824.73
2019-05-10T22:28:42.629Z,100830.48
2019-05-10T22:31:12.319Z,100832.21
2019-05-10T22:33:41.958Z,100836.34
2019-05-10T22:36:18.168Z,100839.98
2019-05-10T22:38:48.069Z,100838.52
2019-05-10T22:41:17.803Z,100842.45
2019-05-10T22:43:47.676Z,100842.61
2019-05-10T22:46:19.299Z,100844.20
2019-05-10T22:48:48.950Z,100844.55
2019-05-10T22:51:18.693Z,100841.61
2019-05-10T22:53:59.023Z,100843.91
2019-05-10T22:56:19.969Z,100844.66
2019-05-10T22:58:49.655Z,100843.27
2019-05-10T23:01:20.207Z,100850.48
2019-05-10T23:03:49.874Z,100852.77
2019-05-10T23:06:19.639Z,100855.67
2019-05-10T23:08:49.421Z,100849.58
2019-05-10T23:11:19.530Z,100854.77
2019-05-10T23:13:49.271Z,100861.72
2019-05-10T23:16:18.972Z,100858.79
2019-05-10T23:18:48.637Z,100855.03
2019-05-10T23:21:18.305Z,100859.05
2019-05-10T23:23:47.935Z,100857.50
2019-05-10T23:26:17.648Z,100860.22
2019-05-10T23:28:47.357Z,100862.38
2019-05-10T23:31:17.072Z,100863.55
2019-05-10T23:33:47.262Z,100862.02
2019-05-10T23:36:17.062Z,100865.03
2019-05-10T23:38:47.628Z,100861.85
2019-05-10T23:41:17.275Z,100865.50
2019-05-10T23:43:47.855Z,100861.45
2019-05-10T23:46:17.479Z,100869.34
2019-05-10T23:51:53.421Z,100873.48
2019-05-10T23:54:23.120Z,100870.30
2019-05-10T23:56:52.773Z,100870.26
2019-05-10T23:59:22.481Z,100867.45
